Time;durP1;ratioP1;P1;durP2;ratioP2;P2;SDS_P1;SDS_P2;PMS_P1;PMS_P2;Temp;Humidity;BMP_temperature;BMP_pressure;BME280_temperature;BME280_humidity;BME280_pressure;Samples;Min_cycle;Max_cycle;Signal;HPM_P1;HPM_P2
2024/03/11 00:00:45;;;;;;;36.30;15.40;;;;;;;9.44;100.00;99454.77;213807;1283;140419;-84
2024/03/11 00:05:45;;;;;;;37.60;14.60;;;;;;;9.44;100.00;99450.84;214208;1288;138529;-86
2024/03/11 00:10:45;;;;;;;43.60;18.70;;;;;;;9.44;100.00;99439.54;213834;1282;140052;-86
2024/03/11 00:15:46;;;;;;;30.70;14.70;;;;;;;9.41;100.00;99440.55;214353;1287;138485;-86
2024/03/11 00:20:47;;;;;;;31.20;13.10;;;;;;;9.40;100.00;99452.02;213896;1283;139748;-85
2024/03/11 00:25:47;;;;;;;33.40;15.60;;;;;;;9.40;100.00;99457.42;214467;1282;96616;-86
2024/03/11 00:30:47;;;;;;;35.10;16.20;;;;;;;9.39;100.00;99455.00;214146;1285;139396;-83
2024/03/11 00:35:48;;;;;;;28.00;14.40;;;;;;;9.34;100.00;99445.98;215638;1285;138633;-84
2024/03/11 00:40:49;;;;;;;29.60;14.20;;;;;;;9.30;100.00;99446.45;218688;1282;140105;-86
2024/03/11 00:45:49;;;;;;;29.20;14.00;;;;;;;9.30;100.00;99457.58;219425;1284;139779;-87
2024/03/11 00:50:50;;;;;;;29.80;14.70;;;;;;;9.31;100.00;99465.90;214540;1288;140014;-84
2024/03/11 00:55:52;;;;;;;27.60;13.30;;;;;;;9.30;100.00;99478.05;214995;1282;96578;-85
2024/03/11 01:00:52;;;;;;;27.90;12.80;;;;;;;9.29;100.00;99472.95;215702;1283;139639;-85
2024/03/11 01:05:53;;;;;;;29.90;14.00;;;;;;;9.27;100.00;99473.20;214911;1283;138596;-87
2024/03/11 01:10:54;;;;;;;30.50;15.20;;;;;;;9.24;100.00;99460.16;213988;1283;139137;-83
2024/03/11 01:15:54;;;;;;;27.10;13.60;;;;;;;9.20;100.00;99454.60;214347;1282;138687;-84
2024/03/11 01:20:55;;;;;;;24.40;12.60;;;;;;;9.14;100.00;99453.48;213972;1288;139291;-85
2024/03/11 01:25:56;;;;;;;24.10;11.30;;;;;;;9.08;100.00;99458.10;214581;1285;97203;-84
2024/03/11 01:30:56;;;;;;;28.80;14.40;;;;;;;9.03;100.00;99455.12;214062;1288;140215;-84
2024/03/11 01:35:56;;;;;;;21.40;12.10;;;;;;;8.97;100.00;99455.04;215047;1285;138498;-86
2024/03/11 01:40:57;;;;;;;24.00;12.80;;;;;;;8.91;100.00;99444.75;214178;1288;139759;-87
2024/03/11 01:45:59;;;;;;;27.90;13.90;;;;;;;8.88;100.00;99437.05;214213;1285;139202;-87
2024/03/11 01:50:59;;;;;;;25.70;14.10;;;;;;;8.84;100.00;99426.40;213884;1283;140257;-87
2024/03/11 01:56:01;;;;;;;26.70;14.50;;;;;;;8.70;100.00;99424.88;214434;1288;96823;-89
2024/03/11 02:01:01;;;;;;;26.30;13.20;;;;;;;8.52;100.00;99417.46;214086;1284;139271;-88
2024/03/11 02:06:02;;;;;;;113.10;41.50;;;;;;;8.36;100.00;99416.63;214252;1286;139101;-86
2024/03/11 02:11:03;;;;;;;41.50;19.30;;;;;;;8.23;100.00;99411.56;214017;1285;139902;-89
2024/03/11 02:16:04;;;;;;;32.30;15.80;;;;;;;8.12;100.00;99409.45;214405;1286;138596;-89
2024/03/11 02:21:06;;;;;;;30.80;15.00;;;;;;;8.03;100.00;99398.84;214434;1284;140517;-89
2024/03/11 02:26:06;;;;;;;37.80;17.10;;;;;;;7.97;100.00;99397.16;214798;1285;96626;-86
2024/03/11 02:31:07;;;;;;;49.00;21.30;;;;;;;7.93;100.00;99391.20;214123;1285;139768;-87
2024/03/11 02:36:07;;;;;;;34.60;16.30;;;;;;;7.88;100.00;99374.51;214584;1283;138986;-87
2024/03/11 02:41:08;;;;;;;30.30;15.10;;;;;;;7.84;100.00;99369.63;214588;1283;140461;-89
2024/03/11 02:46:08;;;;;;;36.10;17.70;;;;;;;7.79;100.00;99365.30;214348;1282;138535;-87
2024/03/11 02:51:09;;;;;;;48.60;23.00;;;;;;;7.75;100.00;99366.06;213932;1288;139868;-90
2024/03/11 02:56:09;;;;;;;33.60;14.10;;;;;;;7.72;100.00;99359.33;214561;1285;97948;-90
2024/03/11 03:01:12;;;;;;;162.90;51.10;;;;;;;7.72;100.00;99354.00;214014;1288;140158;-89
2024/03/11 03:06:16;;;;;;;38.30;17.50;;;;;;;7.71;100.00;99353.45;214722;1283;138656;-90
2024/03/11 03:11:17;;;;;;;31.50;15.40;;;;;;;7.70;100.00;99358.38;214109;1283;153392;-89
2024/03/11 03:16:19;;;;;;;31.10;16.00;;;;;;;7.71;100.00;99363.77;213972;1282;140324;-87
2024/03/11 03:21:21;;;;;;;33.40;14.20;;;;;;;7.71;100.00;99363.92;214529;1287;138543;-89
2024/03/11 03:26:22;;;;;;;30.40;15.30;;;;;;;7.72;100.00;99366.36;214147;1283;140006;-88
2024/03/11 03:31:27;;;;;;;34.40;17.30;;;;;;;7.73;100.00;99371.14;214490;1284;138478;-86
2024/03/11 03:36:28;;;;;;;31.20;15.60;;;;;;;7.74;100.00;99374.11;213927;1284;139805;-86
2024/03/11 03:41:29;;;;;;;35.10;16.80;;;;;;;7.76;100.00;99383.45;215168;1287;138643;-87
2024/03/11 03:46:30;;;;;;;28.50;15.60;;;;;;;7.77;100.00;99380.86;214036;1282;140297;-87
2024/03/11 03:51:31;;;;;;;30.10;15.70;;;;;;;7.78;100.00;99376.97;214620;1287;138617;-87
2024/03/11 03:56:32;;;;;;;31.60;17.00;;;;;;;7.81;100.00;99373.60;214308;1285;139992;-89
2024/03/11 04:01:32;;;;;;;30.30;16.20;;;;;;;7.83;100.00;99371.66;214552;1282;138947;-86
2024/03/11 04:06:33;;;;;;;34.00;19.20;;;;;;;7.85;100.00;99367.21;214050;1284;139358;-88
2024/03/11 04:11:35;;;;;;;31.10;16.40;;;;;;;7.86;100.00;99367.84;214493;1283;138697;-88
2024/03/11 04:16:36;;;;;;;138.60;52.20;;;;;;;7.86;100.00;99364.32;214016;1282;140394;-87
2024/03/11 04:21:37;;;;;;;49.20;23.30;;;;;;;7.87;100.00;99367.29;214506;1282;139230;-87
2024/03/11 04:26:38;;;;;;;36.80;20.60;;;;;;;7.87;100.00;99369.64;214240;1287;140204;-87
2024/03/11 04:31:41;;;;;;;31.00;17.40;;;;;;;7.88;100.00;99371.06;215045;1282;138357;-87
2024/03/11 04:36:42;;;;;;;33.90;19.40;;;;;;;7.89;100.00;99374.52;214425;1282;140459;-86
2024/03/11 04:41:43;;;;;;;30.00;19.30;;;;;;;7.91;100.00;99369.59;215217;1284;138722;-86
2024/03/11 04:46:44;;;;;;;34.30;21.20;;;;;;;7.92;100.00;99368.57;213945;1283;139931;-84
2024/03/11 04:51:46;;;;;;;29.80;18.70;;;;;;;7.92;100.00;99365.52;214532;1282;139195;-86
2024/03/11 04:56:47;;;;;;;28.80;18.20;;;;;;;7.91;100.00;99370.13;213909;1285;139877;-88
2024/03/11 05:01:47;;;;;;;30.60;19.40;;;;;;;7.90;100.00;99375.38;214473;1282;97919;-86
2024/03/11 05:06:48;;;;;;;35.20;20.30;;;;;;;7.90;100.00;99375.69;213998;1285;139625;-85
2024/03/11 05:11:48;;;;;;;32.70;20.00;;;;;;;7.89;100.00;99376.79;214616;1284;138577;-85
2024/03/11 05:16:49;;;;;;;31.20;18.60;;;;;;;7.88;100.00;99380.92;213886;1283;140560;-86
2024/03/11 05:21:49;;;;;;;32.90;20.10;;;;;;;7.88;100.00;99386.64;214474;1282;138632;-85
2024/03/11 05:26:50;;;;;;;33.10;20.40;;;;;;;7.88;100.00;99389.77;213949;1283;140244;-86
2024/03/11 05:31:51;;;;;;;33.70;20.60;;;;;;;7.89;100.00;99391.48;214516;1282;97544;-85
2024/03/11 05:36:52;;;;;;;72.00;35.20;;;;;;;7.89;100.00;99395.88;213954;1282;140101;-86
2024/03/11 05:41:52;;;;;;;53.50;25.00;;;;;;;7.90;100.00;99396.02;215083;1282;139166;-85
2024/03/11 05:46:53;;;;;;;47.00;24.50;;;;;;;7.91;100.00;99402.23;213994;1282;139708;-87
2024/03/11 05:51:53;;;;;;;42.10;24.20;;;;;;;7.91;100.00;99396.03;214424;1285;138538;-86
2024/03/11 05:56:56;;;;;;;36.40;21.40;;;;;;;7.91;100.00;99405.36;213757;1283;139967;-86
2024/03/11 06:02:00;;;;;;;32.40;20.00;;;;;;;7.90;100.00;99407.46;214568;1282;97518;-86
2024/03/11 06:07:00;;;;;;;35.80;20.90;;;;;;;7.90;100.00;99411.46;213896;1285;139609;-86
2024/03/11 06:12:01;;;;;;;36.50;20.00;;;;;;;7.90;100.00;99416.86;214499;1284;138794;-87
2024/03/11 06:17:06;;;;;;;36.60;21.50;;;;;;;7.91;100.00;99418.04;214402;1285;140096;-88
2024/03/11 06:22:08;;;;;;;31.80;18.80;;;;;;;7.92;100.00;99421.17;214726;1285;140204;-88
2024/03/11 06:27:09;;;;;;;33.20;20.70;;;;;;;7.90;100.00;99423.43;214252;1282;139900;-87
2024/03/11 06:32:10;;;;;;;33.60;20.70;;;;;;;7.90;100.00;99425.47;214742;1283;96607;-88
2024/03/11 06:37:11;;;;;;;30.90;19.10;;;;;;;7.91;100.00;99426.73;214027;1285;140689;-88
2024/03/11 06:42:12;;;;;;;32.60;21.20;;;;;;;7.92;100.00;99432.13;214564;1282;139099;-89
2024/03/11 06:47:13;;;;;;;32.10;21.10;;;;;;;7.92;100.00;99438.23;213971;1282;139918;-87
2024/03/11 06:52:13;;;;;;;44.10;24.50;;;;;;;7.93;100.00;99439.80;214499;1285;138604;-89
2024/03/11 06:57:13;;;;;;;55.80;26.60;;;;;;;7.95;100.00;99438.40;214034;1285;140351;-86
2024/03/11 07:02:14;;;;;;;49.50;25.90;;;;;;;7.97;100.00;99440.23;214456;1282;97972;-87
2024/03/11 07:07:15;;;;;;;47.90;24.50;;;;;;;7.98;100.00;99437.41;214183;1287;140634;-87
2024/03/11 07:12:20;;;;;;;69.00;27.70;;;;;;;8.00;100.00;99433.42;215178;1287;139576;-88
2024/03/11 07:17:20;;;;;;;145.20;52.70;;;;;;;8.01;100.00;99433.83;214881;1282;141120;-88
2024/03/11 07:22:20;;;;;;;68.90;30.10;;;;;;;8.04;100.00;99442.84;215392;1283;139630;-89
2024/03/11 07:27:21;;;;;;;54.20;26.00;;;;;;;8.07;100.00;99444.88;214939;1282;142989;-88
2024/03/11 07:32:23;;;;;;;51.50;26.30;;;;;;;8.11;100.00;99447.02;214895;1287;97094;-88
2024/03/11 07:37:25;;;;;;;45.10;24.50;;;;;;;8.14;100.00;99451.50;214298;1282;140636;-87
2024/03/11 07:42:26;;;;;;;44.30;24.40;;;;;;;8.19;100.00;99456.01;214736;1286;139848;-88
2024/03/11 07:47:28;;;;;;;39.90;22.50;;;;;;;8.23;100.00;99468.48;213996;1285;140102;-86
2024/03/11 07:52:29;;;;;;;41.00;24.20;;;;;;;8.25;100.00;99470.38;214289;1285;138632;-88
2024/03/11 07:57:29;;;;;;;38.40;24.10;;;;;;;8.26;100.00;99467.56;213921;1285;141511;-87
2024/03/11 08:02:29;;;;;;;40.90;24.90;;;;;;;8.30;100.00;99471.35;214502;1287;97945;-87
2024/03/11 08:07:32;;;;;;;38.40;23.40;;;;;;;8.32;100.00;99475.83;214111;1285;141122;-87
2024/03/11 08:12:34;;;;;;;40.00;22.30;;;;;;;8.35;100.00;99477.55;214460;1288;139289;-84
2024/03/11 08:17:35;;;;;;;36.40;23.80;;;;;;;8.36;100.00;99484.69;213969;1283;139916;-86
2024/03/11 08:22:39;;;;;;;44.30;23.80;;;;;;;8.37;100.00;99476.77;214311;1288;138952;-86
2024/03/11 08:27:39;;;;;;;39.20;22.30;;;;;;;8.40;100.00;99482.98;213674;1288;332003;-86
2024/03/11 08:32:39;;;;;;;38.90;23.80;;;;;;;8.41;100.00;99493.02;214573;1287;98062;-88
2024/03/11 08:37:41;;;;;;;37.90;24.40;;;;;;;8.43;100.00;99495.70;213914;1285;140463;-87
2024/03/11 08:42:44;;;;;;;37.50;23.30;;;;;;;8.45;100.00;99508.23;214296;1283;138909;-87
2024/03/11 08:47:46;;;;;;;41.90;24.80;;;;;;;8.48;100.00;99511.54;214303;1282;141112;-87
2024/03/11 08:52:46;;;;;;;38.50;26.10;;;;;;;8.51;100.00;99511.94;214366;1285;139791;-85
2024/03/11 08:57:49;;;;;;;37.80;23.90;;;;;;;8.53;100.00;99512.51;213928;1282;141770;-87
2024/03/11 09:02:49;;;;;;;40.10;25.70;;;;;;;8.53;100.00;99517.60;214591;1287;139423;-87
2024/03/11 09:07:51;;;;;;;41.20;27.00;;;;;;;8.56;100.00;99521.98;213941;1288;141836;-88
2024/03/11 09:12:51;;;;;;;39.80;26.60;;;;;;;8.56;100.00;99524.19;214518;1285;139283;-89
2024/03/11 09:17:51;;;;;;;48.20;31.10;;;;;;;8.57;100.00;99526.61;213922;1288;141330;-87
2024/03/11 09:22:55;;;;;;;56.30;34.00;;;;;;;8.61;100.00;99525.08;214368;1288;139361;-88
2024/03/11 09:28:01;;;;;;;69.40;36.20;;;;;;;8.67;100.00;99527.54;214071;1282;140684;-87
2024/03/11 09:33:02;;;;;;;59.40;32.00;;;;;;;8.73;100.00;99533.83;214451;1282;138840;-89
2024/03/11 09:38:03;;;;;;;49.70;30.80;;;;;;;8.77;100.00;99537.69;214076;1285;140015;-87
2024/03/11 09:43:05;;;;;;;45.10;29.50;;;;;;;8.81;100.00;99541.22;214419;1285;140411;-87
2024/03/11 09:48:08;;;;;;;43.70;30.50;;;;;;;8.85;100.00;99549.08;214527;1288;140158;-88
2024/03/11 09:53:18;;;;;;;57.80;35.00;;;;;;;8.89;100.00;99546.73;214449;1287;139431;-87
2024/03/11 09:58:20;;;;;;;43.80;30.20;;;;;;;8.94;100.00;99547.00;213994;1282;140315;-87
2024/03/11 10:03:26;;;;;;;45.70;32.50;;;;;;;8.97;100.00;99551.23;214374;1282;139757;-87
2024/03/11 10:08:26;;;;;;;50.30;30.50;;;;;;;9.00;100.00;99563.55;213980;1286;142501;-87
2024/03/11 10:13:30;;;;;;;51.60;31.20;;;;;;;9.00;100.00;99564.49;214395;1286;138805;-88
2024/03/11 10:18:35;;;;;;;53.40;33.20;;;;;;;9.00;100.00;99564.98;214102;1287;141368;-87
2024/03/11 10:23:38;;;;;;;47.30;33.50;;;;;;;8.99;100.00;99564.33;214336;1282;139341;-88
2024/03/11 10:28:39;;;;;;;52.00;31.30;;;;;;;9.02;100.00;99569.44;213899;1282;141396;-86
2024/03/11 10:33:39;;;;;;;65.30;35.80;;;;;;;9.05;100.00;99572.04;214468;1288;139517;-87
2024/03/11 10:38:40;;;;;;;55.90;33.70;;;;;;;9.09;100.00;99569.45;214000;1285;141587;-86
2024/03/11 10:43:41;;;;;;;50.50;35.20;;;;;;;9.14;100.00;99567.45;214467;1288;138311;-85
2024/03/11 10:48:46;;;;;;;51.90;34.40;;;;;;;9.21;100.00;99573.73;214270;1288;140289;-86
2024/03/11 10:53:50;;;;;;;51.10;32.30;;;;;;;9.24;100.00;99576.42;214305;1287;139375;-86
2024/03/11 10:58:58;;;;;;;46.30;31.80;;;;;;;9.28;100.00;99578.77;213786;1288;140404;-86
2024/03/11 11:04:15;;;;;;;47.40;31.50;;;;;;;9.39;100.00;99577.08;214438;1289;138626;-85
2024/03/11 11:09:16;;;;;;;;;;;;;;;9.47;100.00;99587.14;214161;1282;140455;-87
2024/03/11 11:14:21;;;;;;;51.30;32.10;;;;;;;9.52;100.00;99587.61;214562;1286;98005;-86
2024/03/11 11:19:32;;;;;;;47.80;32.70;;;;;;;9.58;100.00;99596.10;213906;1287;139406;-87
2024/03/11 11:24:39;;;;;;;49.40;33.60;;;;;;;9.63;100.00;99596.27;214373;1287;139144;-87
2024/03/11 11:29:42;;;;;;;80.00;46.30;;;;;;;9.70;100.00;99591.40;213658;1288;140524;-85
2024/03/11 11:34:46;;;;;;;61.00;38.90;;;;;;;9.74;100.00;99593.30;214308;1287;139602;-87
2024/03/11 11:39:46;;;;;;;61.40;39.00;;;;;;;9.72;100.00;99592.98;213933;1287;139487;-86
2024/03/11 11:44:49;;;;;;;67.30;38.30;;;;;;;9.75;100.00;99595.89;214486;1287;98871;-88
2024/03/11 11:49:50;;;;;;;77.00;41.80;;;;;;;9.75;100.00;99595.34;214352;1282;140096;-87
2024/03/11 11:54:51;;;;;;;84.50;40.60;;;;;;;9.80;100.00;99592.90;214543;1288;138771;-87
2024/03/11 11:59:54;;;;;;;65.80;34.70;;;;;;;9.89;100.00;99592.21;213930;1285;141193;-88
2024/03/11 12:04:57;;;;;;;60.90;36.20;;;;;;;9.96;100.00;99592.92;214417;1288;139029;-88
2024/03/11 12:10:01;;;;;;;84.50;45.10;;;;;;;10.04;100.00;99593.65;214025;1286;139528;-88
2024/03/11 12:15:02;;;;;;;96.00;43.20;;;;;;;10.09;100.00;99599.55;214347;1285;139034;-88
2024/03/11 12:20:24;;;;;;;84.30;39.20;;;;;;;10.14;100.00;99599.93;214162;1287;141548;-87
2024/03/11 12:25:28;;;;;;;63.50;38.80;;;;;;;10.20;100.00;99597.27;214409;1283;138939;-86
2024/03/11 12:30:35;;;;;;;62.40;35.80;;;;;;;10.22;100.00;99600.00;213946;1287;141092;-86
2024/03/11 12:35:43;;;;;;;57.30;34.30;;;;;;;10.26;100.00;99610.23;214367;1288;139591;-89
2024/03/11 12:40:44;;;;;;;55.10;33.90;;;;;;;10.29;100.00;99612.17;214458;1283;141367;-87
2024/03/11 12:45:51;;;;;;;51.00;32.30;;;;;;;10.32;100.00;99618.77;214348;1286;139325;-86
2024/03/11 12:50:56;;;;;;;47.90;32.10;;;;;;;10.33;100.00;99621.67;214101;1282;140823;-85
2024/03/11 12:56:07;;;;;;;49.90;33.40;;;;;;;10.37;100.00;99623.64;214575;1286;104951;-86
2024/03/11 13:01:09;;;;;;;60.10;36.60;;;;;;;10.41;100.00;99620.81;214269;1288;141878;-86
2024/03/11 13:06:17;;;;;;;141.80;65.10;;;;;;;10.42;100.00;99627.88;215229;1287;138928;-87
2024/03/11 13:11:18;;;;;;;87.80;44.90;;;;;;;10.36;100.00;99631.98;214381;1288;140030;-86
2024/03/11 13:16:19;;;;;;;63.30;37.90;;;;;;;10.37;100.00;99629.54;213968;1288;140892;-86
2024/03/11 13:21:20;;;;;;;62.30;36.60;;;;;;;10.38;100.00;99634.02;214805;1287;139507;-86
2024/03/11 13:26:22;;;;;;;62.10;35.50;;;;;;;10.41;100.00;99634.40;214037;1283;140904;-86
2024/03/11 13:31:23;;;;;;;55.50;36.40;;;;;;;10.45;100.00;99630.79;214562;1288;139327;-85
2024/03/11 13:36:24;;;;;;;56.40;36.50;;;;;;;10.48;100.00;99631.16;213967;1287;140592;-86
2024/03/11 13:41:25;;;;;;;57.20;34.10;;;;;;;10.47;100.00;99634.55;214628;1287;139157;-86
2024/03/11 13:46:26;;;;;;;52.90;36.20;;;;;;;10.45;100.00;99633.22;214272;1285;141000;-87
2024/03/11 13:51:27;;;;;;;50.00;35.80;;;;;;;10.42;100.00;99641.48;214696;1282;139461;-87
2024/03/11 13:56:27;;;;;;;52.20;33.20;;;;;;;10.42;100.00;99642.49;214141;1285;141770;-86
2024/03/11 14:01:29;;;;;;;52.60;34.20;;;;;;;10.44;100.00;99650.05;214490;1288;141380;-85
2024/03/11 14:06:30;;;;;;;49.30;33.30;;;;;;;10.46;100.00;99652.33;214028;1285;141277;-86
2024/03/11 14:11:30;;;;;;;49.60;32.90;;;;;;;10.50;100.00;99659.08;214536;1289;139359;-85
2024/03/11 14:16:31;;;;;;;51.10;33.40;;;;;;;10.50;100.00;99663.39;213928;1285;140834;-86
2024/03/11 14:21:31;;;;;;;57.50;34.30;;;;;;;10.44;100.00;99663.32;214223;1283;139399;-85
2024/03/11 14:26:33;;;;;;;52.70;35.90;;;;;;;10.41;100.00;99667.17;213996;1288;140627;-85
2024/03/11 14:31:34;;;;;;;67.00;45.80;;;;;;;10.40;100.00;99675.02;214553;1287;139750;-86
2024/03/11 14:36:35;;;;;;;73.10;41.70;;;;;;;10.37;100.00;99683.60;213978;1283;140485;-87
2024/03/11 14:41:38;;;;;;;56.00;33.40;;;;;;;10.33;100.00;99681.95;214165;1288;139429;-85
2024/03/11 14:46:42;;;;;;;53.50;35.70;;;;;;;10.27;100.00;99686.27;213948;1283;140836;-86
2024/03/11 14:51:43;;;;;;;53.80;34.90;;;;;;;10.23;100.00;99689.89;214299;1289;139220;-85
2024/03/11 14:56:43;;;;;;;71.00;39.70;;;;;;;10.16;100.00;99695.52;214225;1289;140821;-86
2024/03/11 15:01:44;;;;;;;77.10;41.40;;;;;;;10.10;100.00;99694.81;214609;1286;139090;-86
2024/03/11 15:06:45;;;;;;;58.70;35.40;;;;;;;10.09;100.00;99699.14;214161;1285;140788;-84
2024/03/11 15:11:52;;;;;;;65.10;37.50;;;;;;;10.06;100.00;99696.54;214365;1289;141301;-86
2024/03/11 15:17:00;;;;;;;57.00;34.40;;;;;;;10.00;100.00;99702.87;214292;1289;140689;-86
2024/03/11 15:22:00;;;;;;;105.90;50.20;;;;;;;9.95;100.00;99708.59;214468;1289;139267;-87
2024/03/11 15:27:00;;;;;;;100.50;48.70;;;;;;;9.92;100.00;99711.58;213920;1283;141193;-85
2024/03/11 15:32:01;;;;;;;199.60;74.60;;;;;;;9.90;100.00;99717.52;214423;1283;99267;-87
2024/03/11 15:37:01;;;;;;;198.50;71.80;;;;;;;9.86;100.00;99721.06;213579;1288;140441;-86
2024/03/11 15:42:03;;;;;;;156.90;69.00;;;;;;;9.80;100.00;99726.61;214051;1289;139219;-87
2024/03/11 15:47:05;;;;;;;133.90;64.10;;;;;;;9.75;100.00;99732.58;213766;1283;141006;-86
2024/03/11 15:52:08;;;;;;;92.40;47.00;;;;;;;9.69;100.00;99731.37;214099;1283;138974;-86
2024/03/11 15:57:09;;;;;;;73.70;41.00;;;;;;;9.65;100.00;99740.46;213898;1286;140464;-85
2024/03/11 16:02:09;;;;;;;85.40;46.30;;;;;;;9.59;100.00;99745.46;214403;1289;99272;-87
2024/03/11 16:07:10;;;;;;;84.60;43.10;;;;;;;9.53;100.00;99739.70;214119;1288;140256;-88
2024/03/11 16:12:10;;;;;;;79.50;42.30;;;;;;;9.48;100.00;99745.48;214262;1288;139135;-86
2024/03/11 16:17:11;;;;;;;65.50;37.80;;;;;;;9.44;100.00;99747.59;215209;1282;140844;-87
2024/03/11 16:22:12;;;;;;;63.30;37.20;;;;;;;9.37;100.00;99747.73;215309;1283;138822;-88
2024/03/11 16:27:13;;;;;;;69.30;38.40;;;;;;;9.29;100.00;99754.98;214347;1288;140485;-86
2024/03/11 16:32:13;;;;;;;90.00;43.20;;;;;;;9.21;100.00;99758.23;215038;1282;98888;-87
2024/03/11 16:37:16;;;;;;;82.30;40.50;;;;;;;9.15;100.00;99759.05;213513;1291;140932;-87
2024/03/11 16:42:18;;;;;;;84.10;39.20;;;;;;;9.10;100.00;99764.74;214677;1288;138518;-87
2024/03/11 16:47:21;;;;;;;175.90;79.80;;;;;;;9.09;100.00;99773.05;214103;1288;140008;-85
2024/03/11 16:52:22;;;;;;;203.50;76.00;;;;;;;9.01;100.00;99774.48;214387;1288;139274;-86
2024/03/11 16:57:23;;;;;;;187.90;71.30;;;;;;;8.98;100.00;99777.52;214022;1285;142260;-86
2024/03/11 17:02:25;;;;;;;123.30;53.60;;;;;;;8.95;100.00;99784.17;214970;1285;99298;-85
2024/03/11 17:07:26;;;;;;;154.40;66.30;;;;;;;8.94;100.00;99792.55;214126;1288;140791;-86
2024/03/11 17:12:26;;;;;;;139.70;54.50;;;;;;;8.93;100.00;99792.30;214065;1286;139428;-85
2024/03/11 17:17:27;;;;;;;106.20;46.80;;;;;;;8.87;100.00;99808.09;214074;1283;140669;-84
2024/03/11 17:22:30;;;;;;;157.00;64.30;;;;;;;8.82;100.00;99814.65;214581;1287;138826;-87
2024/03/11 17:27:31;;;;;;;89.70;44.00;;;;;;;8.78;100.00;99815.15;213901;1285;140575;-87
2024/03/11 17:32:31;;;;;;;91.90;45.90;;;;;;;8.70;100.00;99815.48;214486;1283;99386;-86
2024/03/11 17:37:33;;;;;;;99.60;47.50;;;;;;;8.63;100.00;99813.46;213888;1285;141173;-87
2024/03/11 17:42:33;;;;;;;590.30;191.80;;;;;;;8.57;100.00;99812.39;214325;1287;138519;-87
2024/03/11 17:47:33;;;;;;;140.80;58.10;;;;;;;8.51;100.00;99815.00;213880;1283;141404;-88
2024/03/11 17:52:36;;;;;;;132.30;51.00;;;;;;;8.41;100.00;99819.20;214608;1283;139353;-86
2024/03/11 17:57:38;;;;;;;79.90;43.00;;;;;;;8.33;100.00;99819.83;214537;1288;140493;-87
2024/03/11 18:02:41;;;;;;;133.70;55.00;;;;;;;8.25;100.00;99822.41;214940;1286;112880;-86
2024/03/11 18:07:42;;;;;;;100.40;47.20;;;;;;;8.19;100.00;99826.39;214024;1287;140827;-88
2024/03/11 18:12:49;;;;;;;107.50;50.10;;;;;;;8.11;100.00;99831.23;214358;1282;139837;-88
2024/03/11 18:17:50;;;;;;;143.20;56.70;;;;;;;8.05;100.00;99831.23;214112;1285;140396;-87
2024/03/11 18:22:51;;;;;;;118.80;50.20;;;;;;;7.98;100.00;99835.63;214626;1283;139004;-86
2024/03/11 18:27:56;;;;;;;119.10;50.10;;;;;;;7.93;100.00;99839.47;214138;1286;140055;-87
2024/03/11 18:32:57;;;;;;;178.00;73.90;;;;;;;7.88;100.00;99846.77;214472;1288;139674;-87
2024/03/11 18:37:58;;;;;;;178.10;66.00;;;;;;;7.86;100.00;99858.40;214352;1285;140849;-88
2024/03/11 18:43:03;;;;;;;133.90;57.60;;;;;;;7.85;100.00;99866.05;214676;1285;138736;-88
2024/03/11 18:48:04;;;;;;;104.30;51.10;;;;;;;7.84;100.00;99874.50;213945;1286;140617;-86
2024/03/11 18:53:06;;;;;;;103.00;48.50;;;;;;;7.83;100.00;99880.67;214588;1288;139239;-88
2024/03/11 18:58:06;;;;;;;89.60;45.40;;;;;;;7.84;100.00;99885.86;213874;1284;140339;-86
2024/03/11 19:03:06;;;;;;;97.30;49.00;;;;;;;7.85;100.00;99885.63;214321;1282;138643;-86
2024/03/11 19:08:07;;;;;;;128.90;55.60;;;;;;;7.87;100.00;99888.17;213997;1284;140926;-87
2024/03/11 19:13:07;;;;;;;228.30;85.70;;;;;;;7.87;100.00;99888.09;214725;1288;139344;-86
2024/03/11 19:18:08;;;;;;;110.80;51.40;;;;;;;7.86;100.00;99890.66;214055;1285;141262;-88
2024/03/11 19:23:08;;;;;;;104.20;50.90;;;;;;;7.84;100.00;99894.00;214517;1288;139014;-86
2024/03/11 19:28:09;;;;;;;103.20;47.00;;;;;;;7.85;100.00;99898.23;214279;1283;140437;-86
2024/03/11 19:33:10;;;;;;;106.70;52.70;;;;;;;7.84;100.00;99903.45;214380;1285;139288;-87
2024/03/11 19:38:51;;;;;;;106.70;49.70;;;;;;;7.83;100.00;99902.75;214359;1283;140837;-87
2024/03/11 19:44:31;;;;;;;106.00;49.80;;;;;;;7.82;100.00;99905.79;214531;1283;111512;-85
2024/03/11 19:49:52;;;;;;;124.00;55.30;;;;;;;7.81;100.00;99914.38;214263;1286;141025;-86
2024/03/11 19:55:30;;;;;;;81.20;43.00;;;;;;;7.80;100.00;99915.31;214511;1282;139500;-86
2024/03/11 20:01:14;;;;;;;77.10;41.80;;;;;;;7.78;100.00;99915.36;213923;1288;140085;-87
2024/03/11 20:06:53;;;;;;;90.40;47.70;;;;;;;7.75;100.00;99920.33;214655;1288;138519;-86
2024/03/11 20:12:22;;;;;;;87.30;43.50;;;;;;;7.75;100.00;99925.41;214694;1282;138794;-86
2024/03/11 20:18:04;;;;;;;85.30;42.90;;;;;;;7.73;100.00;99925.46;213811;1283;140498;-86
2024/03/11 20:23:23;;;;;;;81.60;44.40;;;;;;;7.71;100.00;99932.88;214659;1288;138680;-85
2024/03/11 20:28:41;;;;;;;123.10;58.90;;;;;;;7.69;100.00;99935.96;214359;1282;187318;-85
2024/03/11 20:33:45;;;;;;;132.70;56.00;;;;;;;7.66;100.00;99944.46;214686;1288;138978;-84
2024/03/11 20:38:45;;;;;;;131.50;58.80;;;;;;;7.65;100.00;99949.84;214142;1288;140903;-84
2024/03/11 20:43:46;;;;;;;126.50;54.50;;;;;;;7.63;100.00;99950.28;214306;1287;138673;-84
2024/03/11 20:48:46;;;;;;;115.10;53.00;;;;;;;7.63;100.00;99949.64;213870;1287;141842;-86
2024/03/11 20:53:47;;;;;;;123.70;54.70;;;;;;;7.62;100.00;99950.81;214258;1288;139180;-86
2024/03/11 20:58:49;;;;;;;99.30;47.90;;;;;;;7.60;100.00;99950.15;214160;1283;140414;-85
2024/03/11 21:03:50;;;;;;;90.00;45.70;;;;;;;7.59;100.00;99954.36;214342;1288;139317;-86
2024/03/11 21:08:52;;;;;;;84.40;44.40;;;;;;;7.56;100.00;99954.62;214103;1286;142115;-85
2024/03/11 21:13:53;;;;;;;96.80;44.30;;;;;;;7.56;100.00;99957.98;214684;1285;106662;-85
2024/03/11 21:19:08;;;;;;;86.60;43.30;;;;;;;7.55;100.00;99953.42;213700;1285;140610;-84
2024/03/11 21:24:28;;;;;;;87.80;45.00;;;;;;;7.57;100.00;99952.36;214080;1288;139315;-85
2024/03/11 21:29:29;;;;;;;105.00;48.40;;;;;;;7.56;100.00;99955.25;213883;1282;140985;-87
2024/03/11 21:34:29;;;;;;;97.40;46.50;;;;;;;7.55;100.00;99953.44;214076;1288;139442;-85
2024/03/11 21:39:30;;;;;;;85.80;43.00;;;;;;;7.53;100.00;99951.85;213546;1283;144491;-86
2024/03/11 21:44:30;;;;;;;83.60;42.80;;;;;;;7.50;100.00;99958.36;214357;1282;99302;-85
2024/03/11 21:49:32;;;;;;;96.20;43.10;;;;;;;7.47;100.00;99957.79;213956;1285;142285;-86
2024/03/11 21:54:33;;;;;;;88.10;44.00;;;;;;;7.45;100.00;99962.83;214337;1283;138799;-84
2024/03/11 21:59:35;;;;;;;82.50;43.10;;;;;;;7.46;100.00;99969.57;213883;1285;140062;-83
2024/03/11 22:04:37;;;;;;;96.00;48.90;;;;;;;7.48;100.00;99972.48;214197;1285;138972;-84
2024/03/11 22:09:37;;;;;;;99.30;45.90;;;;;;;7.44;100.00;99977.98;213893;1283;140150;-85
2024/03/11 22:14:38;;;;;;;89.90;45.00;;;;;;;7.43;100.00;99973.44;214410;1288;98074;-84
2024/03/11 22:19:38;;;;;;;99.50;51.20;;;;;;;7.40;100.00;99967.75;213893;1282;140175;-84
2024/03/11 22:24:39;;;;;;;93.20;43.40;;;;;;;7.35;100.00;99963.29;214536;1283;138748;-84
2024/03/11 22:29:39;;;;;;;97.80;46.30;;;;;;;7.33;100.00;99960.76;214212;1283;139549;-84
2024/03/11 22:34:40;;;;;;;92.80;43.70;;;;;;;7.32;100.00;99965.98;214306;1282;138834;-84